Time;durP1;ratioP1;P1;durP2;ratioP2;P2;SDS_P1;SDS_P2;PMS_P1;PMS_P2;Temp;Humidity;BMP_temperature;BMP_pressure;BME280_temperature;BME280_humidity;BME280_pressure;Samples;Min_cycle;Max_cycle;Signal;HPM_P1;HPM_P2
2023/03/26 00:00:54;;;;;;;25.13;9.73;;;;;;;6.78;100.00;162337.66;5070620;28;20044;-65
2023/03/26 00:03:21;;;;;;;35.25;10.98;;;;;;;6.79;100.00;162340.38;5072705;28;20413;-64
2023/03/26 00:05:49;;;;;;;31.38;11.20;;;;;;;6.74;100.00;162326.94;5071408;28;20044;-64
2023/03/26 00:08:15;;;;;;;23.00;9.40;;;;;;;6.79;100.00;162340.38;5072916;28;20403;-64
2023/03/26 00:10:42;;;;;;;29.75;8.18;;;;;;;6.81;100.00;162345.78;5071286;28;20071;-64
2023/03/26 00:13:08;;;;;;;32.45;8.85;;;;;;;6.84;100.00;162353.81;5072928;28;20067;-64
2023/03/26 00:15:35;;;;;;;34.65;11.45;;;;;;;6.86;100.00;162359.22;5071028;28;20037;-64
2023/03/26 00:18:01;;;;;;;29.88;9.25;;;;;;;6.81;100.00;162345.78;5072411;28;20463;-64
2023/03/26 00:20:28;;;;;;;52.03;15.07;;;;;;;6.86;100.00;162359.22;5071354;28;20182;-64
2023/03/26 00:22:54;;;;;;;34.97;8.13;;;;;;;6.86;100.00;162359.22;5072107;28;20031;-64
2023/03/26 00:25:20;;;;;;;23.75;10.25;;;;;;;6.87;100.00;162361.91;5071134;28;20103;-64
2023/03/26 00:27:46;;;;;;;28.05;8.00;;;;;;;6.85;100.00;162355.19;5072144;28;20130;-65
2023/03/26 00:30:11;;;;;;;26.80;9.32;;;;;;;6.89;100.00;162367.28;5070808;28;20056;-64
2023/03/26 00:32:37;;;;;;;38.35;11.60;;;;;;;6.92;100.00;162375.38;5072375;28;20024;-65
2023/03/26 00:35:03;;;;;;;24.13;8.90;;;;;;;6.90;100.00;162369.97;5070697;28;20090;-64
2023/03/26 00:37:29;;;;;;;33.00;11.48;;;;;;;6.88;100.00;162363.25;5072123;28;20029;-65
2023/03/26 00:39:58;;;;;;;30.42;12.18;;;;;;;6.91;100.00;162371.34;5070647;28;20092;-66
2023/03/26 00:42:24;;;;;;;31.20;9.07;;;;;;;6.89;100.00;162367.28;5072043;28;20468;-66
2023/03/26 00:44:53;;;;;;;24.60;9.38;;;;;;;6.92;100.00;162375.38;5070260;28;20127;-65
2023/03/26 00:47:20;;;;;;;40.83;9.38;;;;;;;6.86;100.00;162357.84;5072131;28;20059;-65
2023/03/26 00:49:45;;;;;;;28.10;9.70;;;;;;;6.95;100.00;162383.47;5070536;28;20067;-64
2023/03/26 00:52:11;;;;;;;40.90;13.05;;;;;;;6.99;100.00;162394.22;5071560;28;20480;-64
2023/03/26 00:54:36;;;;;;;29.95;9.73;;;;;;;7.00;100.00;162395.53;5070252;28;20486;-65
2023/03/26 00:57:05;;;;;;;32.65;10.27;;;;;;;7.04;100.00;162404.97;5071882;28;20020;-65
2023/03/26 00:59:30;;;;;;;;;;;;;;;7.04;100.00;162406.34;5071028;28;22082;-65
2023/03/26 01:01:57;;;;;;;33.33;10.23;;;;;;;7.01;100.00;162396.91;5071719;28;19908;-65
2023/03/26 01:04:33;;;;;;;53.67;13.32;;;;;;;6.98;100.00;162390.19;5070286;28;20540;-65
2023/03/26 01:07:20;;;;;;;25.08;9.50;;;;;;;6.99;100.00;162394.22;5071095;28;20020;-65
2023/03/26 01:09:49;;;;;;;23.75;10.20;;;;;;;6.98;100.00;162390.19;5069545;28;20139;-65
2023/03/26 01:12:17;;;;;;;35.83;11.02;;;;;;;6.90;100.00;162369.97;5071634;28;20391;-65
2023/03/26 01:14:45;;;;;;;32.13;9.98;;;;;;;6.87;100.00;162360.53;5069602;28;20534;-64
2023/03/26 01:17:11;;;;;;;48.83;11.40;;;;;;;6.81;100.00;162345.78;5071690;28;20085;-66
2023/03/26 01:20:11;;;;;;;35.10;11.80;;;;;;;6.79;100.00;162341.69;5070148;28;20047;-65
2023/03/26 01:22:40;;;;;;;31.23;9.90;;;;;;;6.81;100.00;162345.78;5071276;28;20031;-65
2023/03/26 01:25:06;;;;;;;31.58;9.35;;;;;;;6.84;100.00;162353.81;5069440;28;20102;-63
2023/03/26 01:27:39;;;;;;;39.83;12.18;;;;;;;6.83;100.00;162351.13;5071233;28;20036;-63
2023/03/26 01:30:24;;;;;;;38.90;12.55;;;;;;;6.81;100.00;162345.78;5069636;28;20044;-64
2023/03/26 01:32:52;;;;;;;49.60;14.30;;;;;;;6.81;100.00;162345.78;5071358;28;20422;-63
2023/03/26 01:35:51;;;;;;;19.87;9.47;;;;;;;6.81;100.00;162345.78;5069485;28;20063;-63
2023/03/26 01:38:45;;;;;;;35.13;12.68;;;;;;;6.77;100.00;162334.97;5071160;28;20945;-62
2023/03/26 01:41:36;;;;;;;45.63;11.82;;;;;;;6.82;100.00;162348.41;5069760;28;20056;-62
2023/03/26 01:44:18;;;;;;;28.30;8.25;;;;;;;6.83;100.00;162351.13;5070503;28;20028;-63
2023/03/26 01:46:45;;;;;;;32.88;10.38;;;;;;;6.81;100.00;162345.78;5069718;28;20041;-63
2023/03/26 01:49:11;;;;;;;22.30;7.90;;;;;;;6.86;100.00;162357.84;5069460;28;20020;-61
2023/03/26 01:51:39;;;;;;;23.20;9.90;;;;;;;6.84;100.00;162353.81;5070565;28;20569;-63
2023/03/26 01:54:09;;;;;;;34.17;10.45;;;;;;;6.85;100.00;162355.19;5070645;28;20020;-65
2023/03/26 01:57:00;;;;;;;15.68;7.07;;;;;;;6.80;100.00;162344.41;5069487;28;20048;-66
2023/03/26 01:59:53;;;;;;;38.33;11.60;;;;;;;6.78;100.00;162337.66;5069392;28;20080;-65
2023/03/26 02:02:41;;;;;;;27.25;9.00;;;;;;;6.76;100.00;162333.66;5070740;28;20020;-65
2023/03/26 02:05:28;;;;;;;27.10;9.93;;;;;;;6.81;100.00;162345.78;5068996;28;20040;-66
2023/03/26 02:08:04;;;;;;;23.92;8.68;;;;;;;6.90;100.00;162368.66;5070365;28;20032;-66
2023/03/26 02:10:34;;;;;;;34.15;11.93;;;;;;;6.89;100.00;162367.28;5069379;28;20068;-66
2023/03/26 02:13:00;;;;;;;22.70;7.63;;;;;;;6.87;100.00;162360.53;5070241;28;20044;-65
2023/03/26 02:15:26;;;;;;;22.23;9.00;;;;;;;6.82;100.00;162348.41;5069465;28;20051;-65
2023/03/26 02:17:52;;;;;;;29.42;9.63;;;;;;;6.81;100.00;162345.78;5068702;28;20021;-64
2023/03/26 02:20:18;;;;;;;22.00;9.00;;;;;;;6.86;100.00;162359.22;5068690;28;20491;-65
2023/03/26 02:22:46;;;;;;;23.75;9.70;;;;;;;6.88;100.00;162364.63;5069082;28;20566;-65
2023/03/26 02:25:15;;;;;;;21.23;9.18;;;;;;;6.91;100.00;162371.34;5069242;28;20047;-65
2023/03/26 02:27:41;;;;;;;17.45;9.38;;;;;;;6.87;100.00;162361.91;5070443;28;20101;-64
2023/03/26 02:30:09;;;;;;;28.10;7.85;;;;;;;6.89;100.00;162365.94;5069304;28;20400;-64
2023/03/26 02:32:35;;;;;;;38.53;12.02;;;;;;;6.90;100.00;162369.97;5070397;28;20032;-64
2023/03/26 02:35:03;;;;;;;32.70;9.38;;;;;;;6.90;100.00;162368.66;5068456;28;20044;-65
2023/03/26 02:37:29;;;;;;;23.92;8.48;;;;;;;6.89;100.00;162365.94;5070487;28;20467;-65
2023/03/26 02:39:54;;;;;;;28.33;10.32;;;;;;;6.85;100.00;162355.19;5068808;28;20048;-64
2023/03/26 02:42:20;;;;;;;36.13;9.60;;;;;;;6.80;100.00;162343.06;5070674;28;20017;-65
2023/03/26 02:44:45;;;;;;;31.02;11.18;;;;;;;6.75;100.00;162329.56;5072502;28;20048;-65
2023/03/26 02:47:11;;;;;;;37.65;11.32;;;;;;;6.77;100.00;162334.97;5074453;28;20016;-64
2023/03/26 02:49:36;;;;;;;26.95;10.70;;;;;;;6.84;100.00;162353.81;5072685;28;20044;-64
2023/03/26 02:52:05;;;;;;;46.72;12.43;;;;;;;6.91;100.00;162372.66;5073978;28;20032;-65
2023/03/26 02:54:30;;;;;;;;;;;;;;;6.88;100.00;162364.63;5073733;28;20028;-64
2023/03/26 02:56:55;;;;;;;25.77;10.35;;;;;;;6.91;100.00;162372.66;5073833;28;20554;-65
2023/03/26 02:59:21;;;;;;;31.02;11.57;;;;;;;6.95;100.00;162383.47;5072613;28;20078;-65
2023/03/26 03:01:47;;;;;;;26.95;10.98;;;;;;;6.98;100.00;162391.53;5074251;28;20013;-64
2023/03/26 03:04:12;;;;;;;27.73;8.82;;;;;;;6.99;100.00;162394.22;5072153;28;20034;-63
2023/03/26 03:06:39;;;;;;;27.00;11.60;;;;;;;7.01;100.00;162396.91;5074189;28;20030;-64
2023/03/26 03:09:07;;;;;;;29.75;7.50;;;;;;;7.01;100.00;162396.91;5073969;28;20417;-64
2023/03/26 03:11:33;;;;;;;17.75;6.35;;;;;;;7.01;100.00;162398.25;5071953;28;20044;-65
2023/03/26 03:13:58;;;;;;;38.28;13.30;;;;;;;7.02;100.00;162400.94;5073860;28;20024;-65
2023/03/26 03:16:24;;;;;;;30.15;9.35;;;;;;;7.01;100.00;162398.25;5072124;28;20045;-64
2023/03/26 03:18:53;;;;;;;30.80;10.68;;;;;;;6.96;100.00;162384.78;5072973;28;20048;-64
2023/03/26 03:21:19;;;;;;;34.35;10.63;;;;;;;6.99;100.00;162394.22;5072335;28;20032;-65
2023/03/26 03:23:44;;;;;;;19.98;8.48;;;;;;;7.01;100.00;162396.91;5073663;28;20360;-64
2023/03/26 03:26:16;;;;;;;25.65;10.40;;;;;;;6.99;100.00;162394.22;5072011;28;20049;-64
2023/03/26 03:28:41;;;;;;;41.17;10.85;;;;;;;7.01;100.00;162396.91;5073563;28;20032;-63
2023/03/26 03:31:07;;;;;;;24.27;10.23;;;;;;;7.00;100.00;162395.53;5072192;28;20044;-64
2023/03/26 03:33:33;;;;;;;18.05;10.40;;;;;;;6.93;100.00;162378.06;5073190;28;20153;-64
2023/03/26 03:35:59;;;;;;;25.40;9.90;;;;;;;6.95;100.00;162383.47;5071768;28;20038;-63
2023/03/26 03:38:24;;;;;;;28.10;9.25;;;;;;;6.99;100.00;162392.91;5073454;28;20063;-63
2023/03/26 03:40:50;;;;;;;31.05;10.30;;;;;;;6.98;100.00;162390.19;5071417;28;20094;-63
2023/03/26 03:43:15;;;;;;;51.05;12.75;;;;;;;7.01;100.00;162396.91;5073608;28;20040;-64
2023/03/26 03:45:40;;;;;;;29.25;9.45;;;;;;;7.04;100.00;162404.97;5072035;28;20047;-64
2023/03/26 03:48:06;;;;;;;31.30;10.55;;;;;;;6.95;100.00;162383.47;5073091;28;20031;-63
2023/03/26 03:50:31;;;;;;;37.85;12.57;;;;;;;6.90;100.00;162369.97;5071413;28;20499;-64
2023/03/26 03:52:57;;;;;;;42.33;10.15;;;;;;;6.83;100.00;162351.13;5072689;28;20375;-64
2023/03/26 03:55:26;;;;;;;33.88;11.23;;;;;;;6.80;100.00;162344.41;5051468;28;20041;-64
2023/03/26 03:57:52;;;;;;;50.58;13.20;;;;;;;6.82;100.00;162349.78;5052770;28;20369;-64
2023/03/26 04:00:18;;;;;;;30.15;11.35;;;;;;;6.85;100.00;162355.19;5051996;28;20091;-64
2023/03/26 04:02:44;;;;;;;34.67;11.52;;;;;;;6.91;100.00;162372.66;5052600;28;20538;-64
2023/03/26 04:05:10;;;;;;;32.58;9.15;;;;;;;6.95;100.00;162383.47;5051301;28;20455;-63
2023/03/26 04:07:36;;;;;;;29.60;10.05;;;;;;;6.99;100.00;162394.22;5053264;28;20029;-64
2023/03/26 04:10:02;;;;;;;47.60;12.05;;;;;;;6.98;100.00;162391.53;5051663;28;20041;-64
2023/03/26 04:12:29;;;;;;;48.70;14.00;;;;;;;7.03;100.00;162402.31;5072435;28;20492;-63
2023/03/26 04:14:54;;;;;;;39.03;13.43;;;;;;;7.04;100.00;162404.97;5071494;28;20147;-63
2023/03/26 04:17:23;;;;;;;39.38;12.02;;;;;;;7.02;100.00;162400.94;5072974;28;20043;-64
2023/03/26 04:19:51;;;;;;;46.03;16.77;;;;;;;7.05;100.00;162407.66;5070641;28;20052;-64
2023/03/26 04:22:18;;;;;;;42.17;13.95;;;;;;;7.04;100.00;162406.34;5072880;28;20020;-64
2023/03/26 04:24:44;;;;;;;34.90;13.93;;;;;;;7.06;100.00;162410.38;5071218;28;20037;-64
2023/03/26 04:27:14;;;;;;;44.25;16.20;;;;;;;7.03;100.00;162402.31;5071964;28;20031;-65
2023/03/26 04:29:42;;;;;;;54.35;17.25;;;;;;;7.06;100.00;162410.38;5071456;28;20089;-65
2023/03/26 04:32:23;;;;;;;42.70;18.40;;;;;;;7.07;100.00;162414.44;5072362;28;20025;-65
2023/03/26 04:34:48;;;;;;;42.17;16.25;;;;;;;7.11;100.00;162425.19;5070411;28;20131;-63
2023/03/26 04:37:23;;;;;;;48.83;15.68;;;;;;;7.11;100.00;162423.88;5072288;28;20020;-62
2023/03/26 04:39:49;;;;;;;49.90;16.55;;;;;;;7.13;100.00;162429.22;5070720;28;20037;-62
2023/03/26 04:42:18;;;;;;;54.38;15.90;;;;;;;7.11;100.00;162423.88;5070771;28;20081;-64
2023/03/26 04:44:44;;;;;;;58.25;20.35;;;;;;;7.12;100.00;162426.53;5070590;28;20040;-64
2023/03/26 04:47:10;;;;;;;45.80;15.40;;;;;;;6.99;100.00;162392.91;5071606;28;20024;-65
2023/03/26 04:49:35;;;;;;;54.83;19.45;;;;;;;7.05;100.00;162409.03;5070542;28;20040;-64
2023/03/26 04:52:01;;;;;;;50.90;18.33;;;;;;;7.10;100.00;162421.19;5072115;28;20028;-64
2023/03/26 04:54:26;;;;;;;46.78;17.13;;;;;;;7.10;100.00;162422.50;5067358;28;20054;-64
2023/03/26 04:56:59;;;;;;;67.22;17.33;;;;;;;7.07;100.00;162413.06;5070673;28;20050;-64
2023/03/26 04:59:33;;;;;;;56.40;17.73;;;;;;;7.03;100.00;162402.31;5070582;28;20731;-63
2023/03/26 05:02:00;;;;;;;59.35;16.88;;;;;;;6.95;100.00;162383.47;5071603;28;20020;-65
2023/03/26 05:04:28;;;;;;;53.75;15.60;;;;;;;6.95;100.00;162382.09;5070122;28;20123;-65
2023/03/26 05:06:56;;;;;;;45.13;15.53;;;;;;;6.92;100.00;162374.03;5071044;28;20066;-65
2023/03/26 05:09:23;;;;;;;49.55;17.83;;;;;;;6.86;100.00;162357.84;5070589;28;20024;-65
2023/03/26 05:11:49;;;;;;;46.72;15.23;;;;;;;6.77;100.00;162336.34;5070675;28;20095;-65
2023/03/26 05:14:15;;;;;;;52.55;15.40;;;;;;;6.65;100.00;162304.00;5070554;28;20029;-64
2023/03/26 05:16:40;;;;;;;47.03;17.38;;;;;;;6.57;100.00;162283.81;5070170;28;20494;-65
2023/03/26 05:19:07;;;;;;;67.65;18.45;;;;;;;6.49;100.00;162263.59;5067080;28;20045;-63
2023/03/26 05:21:32;;;;;;;51.45;16.60;;;;;;;6.37;100.00;162230.00;5057476;28;20098;-62
2023/03/26 05:23:58;;;;;;;58.72;15.80;;;;;;;6.29;100.00;162211.09;5051231;28;20029;-63
2023/03/26 05:26:23;;;;;;;42.63;13.73;;;;;;;6.24;100.00;162197.66;5049792;28;20036;-62
2023/03/26 05:28:49;;;;;;;55.78;17.30;;;;;;;6.19;100.00;162184.22;5051308;28;20071;-63
2023/03/26 05:31:17;;;;;;;39.28;14.00;;;;;;;6.13;100.00;162169.38;5049741;28;20041;-63
2023/03/26 05:33:43;;;;;;;54.42;16.15;;;;;;;6.06;100.00;162149.22;5069021;28;20040;-60
2023/03/26 05:36:14;;;;;;;59.70;16.58;;;;;;;6.03;100.00;162143.84;5069858;28;20118;-60
2023/03/26 05:38:40;;;;;;;63.42;18.17;;;;;;;6.10;100.00;162159.97;5069151;28;20116;-60
2023/03/26 05:41:07;;;;;;;53.45;15.13;;;;;;;6.21;100.00;162189.59;5067022;28;20040;-60
2023/03/26 05:43:34;;;;;;;42.90;13.75;;;;;;;6.33;100.00;162221.91;5066116;28;20028;-60
2023/03/26 05:45:59;;;;;;;38.50;14.15;;;;;;;6.43;100.00;162246.13;5069407;28;20051;-60
2023/03/26 05:48:25;;;;;;;44.70;16.23;;;;;;;6.51;100.00;162269.00;5069864;28;20037;-60
2023/03/26 05:50:53;;;;;;;37.58;16.25;;;;;;;6.60;100.00;162291.88;5069359;28;20049;-60
2023/03/26 05:53:20;;;;;;;35.83;15.10;;;;;;;6.59;100.00;162289.19;5070038;28;20055;-60
2023/03/26 05:55:49;;;;;;;47.25;15.95;;;;;;;6.60;100.00;162290.56;5067636;28;20467;-60
2023/03/26 05:58:15;;;;;;;49.42;14.32;;;;;;;6.66;100.00;162308.03;5065237;28;20082;-60
2023/03/26 06:00:40;;;;;;;43.65;15.60;;;;;;;6.72;100.00;162321.53;5057488;28;20036;-59
2023/03/26 06:03:11;;;;;;;66.13;19.52;;;;;;;6.77;100.00;162334.97;5060768;28;20028;-60
2023/03/26 06:05:37;;;;;;;81.68;19.88;;;;;;;6.78;100.00;162337.66;5061960;28;20037;-60
2023/03/26 06:08:03;;;;;;;62.85;17.95;;;;;;;6.74;100.00;162328.25;5063751;28;20031;-59
2023/03/26 06:10:29;;;;;;;81.45;21.23;;;;;;;6.76;100.00;162333.66;5066766;28;20521;-60
2023/03/26 06:12:55;;;;;;;52.15;18.77;;;;;;;6.77;100.00;162336.34;5058812;28;20028;-60
2023/03/26 06:15:20;;;;;;;43.28;13.93;;;;;;;6.83;100.00;162351.13;5055133;28;20037;-60
2023/03/26 06:17:46;;;;;;;55.25;17.17;;;;;;;6.86;100.00;162359.22;5047471;28;20025;-59
2023/03/26 06:20:12;;;;;;;54.28;16.98;;;;;;;6.91;100.00;162372.66;5048782;28;20103;-60
2023/03/26 06:22:37;;;;;;;51.72;16.73;;;;;;;6.99;100.00;162394.22;5049832;28;20016;-59
2023/03/26 06:25:03;;;;;;;37.80;14.13;;;;;;;7.02;100.00;162399.63;5047315;28;20166;-59
2023/03/26 06:27:28;;;;;;;32.92;14.15;;;;;;;7.11;100.00;162423.88;5049702;28;20025;-59
2023/03/26 06:29:54;;;;;;;63.35;17.27;;;;;;;7.21;100.00;162450.78;5048198;28;20500;-60
2023/03/26 06:32:19;;;;;;;55.97;14.07;;;;;;;7.23;100.00;162454.81;5048882;28;20060;-59
2023/03/26 06:34:45;;;;;;;54.15;16.45;;;;;;;7.21;100.00;162450.78;5048620;28;20388;-60
2023/03/26 06:37:10;;;;;;;43.28;14.70;;;;;;;7.30;100.00;162475.03;5049952;28;20123;-59
2023/03/26 06:39:35;;;;;;;38.88;12.45;;;;;;;7.42;100.00;162504.66;5050373;28;20032;-59
2023/03/26 06:42:01;;;;;;;42.17;14.35;;;;;;;7.43;100.00;162508.72;5069502;28;20073;-59
2023/03/26 06:44:26;;;;;;;61.47;15.05;;;;;;;7.50;100.00;162526.19;5067766;28;20024;-60
2023/03/26 06:46:51;;;;;;;45.65;12.50;;;;;;;7.50;100.00;162526.19;5068886;28;20082;-60
2023/03/26 06:49:17;;;;;;;42.35;12.35;;;;;;;7.51;100.00;162528.91;5067847;28;20061;-60
2023/03/26 06:51:42;;;;;;;45.22;13.80;;;;;;;7.46;100.00;162515.44;5062333;28;20032;-60
2023/03/26 06:54:08;;;;;;;43.47;15.38;;;;;;;7.45;100.00;162512.75;5069026;28;20589;-60
2023/03/26 06:56:33;;;;;;;38.65;14.75;;;;;;;7.43;100.00;162507.34;5066273;28;20036;-60
2023/03/26 06:58:58;;;;;;;42.47;15.15;;;;;;;7.45;100.00;162512.75;5069683;28;20464;-60
2023/03/26 07:01:24;;;;;;;33.10;12.60;;;;;;;7.49;100.00;162523.50;5067911;28;20045;-60
2023/03/26 07:03:49;;;;;;;51.95;13.55;;;;;;;7.57;100.00;162545.06;5068133;28;20046;-60
2023/03/26 07:06:15;;;;;;;41.20;14.18;;;;;;;7.62;100.00;162558.56;5068353;28;20071;-60
2023/03/26 07:08:40;;;;;;;45.70;12.68;;;;;;;7.62;100.00;162558.56;5068760;28;20020;-60
2023/03/26 07:11:05;;;;;;;36.67;13.15;;;;;;;7.61;100.00;162555.88;5066591;28;20045;-60
2023/03/26 07:13:31;;;;;;;54.22;17.02;;;;;;;7.70;100.00;162577.44;5068694;28;20052;-60
2023/03/26 07:15:56;;;;;;;36.75;11.63;;;;;;;7.70;100.00;162577.44;5062302;28;20048;-60
2023/03/26 07:18:21;;;;;;;55.10;13.23;;;;;;;7.70;100.00;162577.44;5067943;28;20069;-60
2023/03/26 07:20:47;;;;;;;47.03;13.32;;;;;;;7.75;100.00;162590.88;5068091;28;20414;-60
2023/03/26 07:23:18;;;;;;;52.45;14.13;;;;;;;7.77;100.00;162596.28;5069041;28;20077;-60
2023/03/26 07:25:44;;;;;;;34.65;12.48;;;;;;;7.80;100.00;162604.34;5063038;28;20045;-60
2023/03/26 07:28:23;;;;;;;35.33;12.43;;;;;;;7.80;100.00;162604.34;5058276;28;20036;-60
2023/03/26 07:31:10;;;;;;;44.35;13.40;;;;;;;7.86;100.00;162620.50;5059932;28;20071;-60
2023/03/26 07:33:55;;;;;;;41.47;12.93;;;;;;;7.83;100.00;162612.44;5072242;28;20033;-60
2023/03/26 07:36:28;;;;;;;45.13;14.98;;;;;;;7.83;100.00;162612.44;5071674;28;20374;-60
2023/03/26 07:39:29;;;;;;;37.45;13.68;;;;;;;7.84;100.00;162615.16;5068569;28;20479;-60
2023/03/26 07:42:10;;;;;;;38.67;16.02;;;;;;;7.82;100.00;162608.44;5065841;28;20044;-60
2023/03/26 07:44:53;;;;;;;41.15;14.32;;;;;;;7.82;100.00;162609.75;5071591;28;20037;-60
2023/03/26 07:47:35;;;;;;;49.38;15.02;;;;;;;7.86;100.00;162620.50;5068677;28;20047;-60
2023/03/26 07:50:01;;;;;;;36.83;15.50;;;;;;;7.93;100.00;162638.03;5071173;28;20040;-61
2023/03/26 07:52:27;;;;;;;45.67;13.55;;;;;;;8.02;100.00;162660.94;5072162;28;20040;-60
2023/03/26 07:54:53;;;;;;;45.88;17.25;;;;;;;8.08;100.00;162677.09;5069506;28;20127;-60
2023/03/26 07:57:48;;;;;;;48.25;13.45;;;;;;;8.17;100.00;162700.03;5071583;28;20032;-60
2023/03/26 08:00:25;;;;;;;34.13;14.43;;;;;;;8.36;100.00;162751.25;5064217;28;20040;-60
2023/03/26 08:03:06;;;;;;;43.05;15.10;;;;;;;8.46;100.00;162776.84;5070824;28;20490;-60
2023/03/26 08:05:41;;;;;;;36.58;14.85;;;;;;;8.46;100.00;162776.84;5068838;28;20036;-60
2023/03/26 08:08:09;;;;;;;51.35;14.27;;;;;;;8.53;100.00;162795.75;5072023;28;20391;-60
2023/03/26 08:10:53;;;;;;;46.15;13.75;;;;;;;8.58;100.00;162807.91;5059255;28;20040;-60
2023/03/26 08:13:34;;;;;;;36.70;15.80;;;;;;;8.69;100.00;162837.59;5072461;28;20052;-60
2023/03/26 08:16:07;;;;;;;44.03;12.25;;;;;;;8.67;100.00;162832.19;5068480;28;20036;-60
2023/03/26 08:18:50;;;;;;;43.90;12.23;;;;;;;8.78;100.00;162859.16;5061119;28;20048;-60
2023/03/26 08:21:27;;;;;;;38.63;15.13;;;;;;;8.85;100.00;162878.03;5050776;28;20055;-60
2023/03/26 08:23:59;;;;;;;40.10;14.70;;;;;;;8.95;100.00;162903.66;5043690;28;20492;-60
2023/03/26 08:26:37;;;;;;;42.60;16.02;;;;;;;9.03;100.00;162925.22;5067250;28;20063;-60
2023/03/26 08:29:31;;;;;;;45.20;16.63;;;;;;;9.12;100.00;162949.47;5071854;28;20028;-60
2023/03/26 08:31:58;;;;;;;33.05;11.75;;;;;;;9.17;100.00;162962.97;5069439;28;20441;-60
2023/03/26 08:34:23;;;;;;;35.90;15.15;;;;;;;9.28;100.00;162989.91;5065286;28;20024;-60
2023/03/26 08:36:49;;;;;;;49.38;14.50;;;;;;;9.41;100.00;163025.03;5066667;28;20078;-60
2023/03/26 08:39:14;;;;;;;47.72;13.38;;;;;;;9.39;100.00;163018.25;5070001;28;20021;-60
2023/03/26 08:42:03;;;;;;;36.63;13.88;;;;;;;9.36;100.00;163011.50;5071747;28;20020;-61
2023/03/26 08:44:51;;;;;;;39.63;14.98;;;;;;;9.31;100.00;162998.03;5069121;28;20087;-61
2023/03/26 08:47:55;;;;;;;44.28;15.60;;;;;;;9.24;100.00;162979.16;5069254;28;20035;-61
2023/03/26 08:50:55;;;;;;;38.53;13.90;;;;;;;9.17;100.00;162962.97;5069719;28;20041;-61
2023/03/26 08:53:31;;;;;;;28.90;14.45;;;;;;;9.25;100.00;162981.84;5071433;28;20510;-61
2023/03/26 08:56:08;;;;;;;39.30;14.30;;;;;;;9.30;100.00;162995.34;5069837;28;20097;-60
2023/03/26 08:59:04;;;;;;;44.85;15.05;;;;;;;9.20;100.00;162969.72;5070760;28;20047;-60
2023/03/26 09:02:09;;;;;;;61.38;22.30;;;;;;;9.24;100.00;162979.16;5070167;28;20044;-60
2023/03/26 09:04:53;;;;;;;50.53;15.77;;;;;;;9.24;100.00;162980.47;5069092;28;20068;-60
2023/03/26 09:07:55;;;;;;;33.67;16.60;;;;;;;9.05;100.00;162930.59;5060364;28;20083;-60
2023/03/26 09:10:36;;;;;;;44.20;19.02;;;;;;;8.75;100.00;162852.38;5070082;28;20532;-60
2023/03/26 09:13:19;;;;;;;36.78;16.70;;;;;;;8.72;100.00;162845.66;5071253;28;20467;-60
2023/03/26 09:16:24;;;;;;;25.05;16.05;;;;;;;8.70;100.00;162838.91;5069066;28;20499;-59
2023/03/26 09:19:05;;;;;;;31.10;16.73;;;;;;;8.56;100.00;162803.88;5053632;28;20102;-60
2023/03/26 09:21:54;;;;;;;26.33;13.82;;;;;;;8.75;100.00;162852.38;5054594;28;20396;-59
2023/03/26 09:24:38;;;;;;;24.80;13.25;;;;;;;8.86;100.00;162882.06;5051152;28;20029;-60
2023/03/26 09:27:36;;;;;;;26.20;13.50;;;;;;;9.04;100.00;162929.25;5068245;28;20088;-60
2023/03/26 09:30:20;;;;;;;18.95;10.75;;;;;;;9.43;100.00;163030.38;5064594;28;20407;-60
2023/03/26 09:33:20;;;;;;;28.45;12.75;;;;;;;9.49;100.00;163046.56;5069129;28;20363;-60
2023/03/26 09:36:37;;;;;;;22.70;12.90;;;;;;;9.55;100.00;163061.41;5068664;28;20051;-61
2023/03/26 09:39:15;;;;;;;22.65;13.00;;;;;;;9.68;100.00;163095.16;5064634;28;20525;-61
2023/03/26 09:41:42;;;;;;;;;;;;;;;9.42;100.00;163027.69;5066965;28;20048;-60
2023/03/26 09:44:17;;;;;;;19.63;10.80;;;;;;;9.26;100.00;162984.56;5058184;28;19913;-60
2023/03/26 09:47:11;;;;;;;30.58;14.68;;;;;;;9.20;100.00;162971.03;5055747;28;20040;-60
2023/03/26 09:50:08;;;;;;;20.60;12.10;;;;;;;9.29;100.00;162992.63;5070108;28;20121;-60
2023/03/26 09:52:51;;;;;;;22.33;11.95;;;;;;;9.20;100.00;162971.03;5064872;28;20052;-60
2023/03/26 09:55:45;;;;;;;19.13;11.02;;;;;;;9.06;100.00;162933.28;5068963;28;20051;-60
2023/03/26 09:58:41;;;;;;;18.75;11.40;;;;;;;9.00;100.00;162917.13;5070169;28;20021;-60
2023/03/26 10:01:13;;;;;;;24.63;11.50;;;;;;;9.04;100.00;162929.25;5062880;28;20074;-60
2023/03/26 10:03:58;;;;;;;22.20;11.32;;;;;;;8.99;100.00;162915.78;5069916;28;20025;-60
2023/03/26 10:06:40;;;;;;;23.83;11.95;;;;;;;8.91;100.00;162894.22;5064385;28;20040;-58
2023/03/26 10:09:32;;;;;;;14.55;9.20;;;;;;;8.86;100.00;162882.06;5069847;28;20111;-60
2023/03/26 10:12:23;;;;;;;17.40;9.13;;;;;;;8.89;100.00;162890.19;5068770;28;20089;-60
2023/03/26 10:15:02;;;;;;;18.92;8.57;;;;;;;8.74;100.00;162849.72;5069618;28;20130;-59
2023/03/26 10:18:16;;;;;;;18.48;9.90;;;;;;;8.69;100.00;162836.22;5048533;28;20408;-60
2023/03/26 10:21:06;;;;;;;15.85;8.63;;;;;;;8.82;100.00;162871.31;5044693;28;20044;-60
2023/03/26 10:23:38;;;;;;;16.48;10.05;;;;;;;8.96;100.00;162906.34;5067190;28;20052;-60
2023/03/26 10:26:27;;;;;;;25.15;9.55;;;;;;;8.84;100.00;162876.66;5057818;28;20068;-61
2023/03/26 10:29:13;;;;;;;18.13;9.30;;;;;;;8.85;100.00;162879.38;5068929;28;20040;-61
2023/03/26 10:32:20;;;;;;;16.73;8.15;;;;;;;8.92;100.00;162896.91;5068809;28;20045;-60
2023/03/26 10:35:00;;;;;;;15.60;9.45;;;;;;;8.69;100.00;162837.59;5059494;28;20051;-60
2023/03/26 10:37:43;;;;;;;13.77;7.00;;;;;;;8.67;100.00;162830.84;5058911;28;20039;-60
2023/03/26 10:40:26;;;;;;;27.27;10.45;;;;;;;8.52;100.00;162791.72;5066747;28;20063;-60
2023/03/26 10:42:59;;;;;;;30.55;11.55;;;;;;;8.49;100.00;162785.00;5067187;28;20028;-60
2023/03/26 10:45:43;;;;;;;24.40;9.68;;;;;;;8.21;100.00;162712.19;5059161;28;20052;-60
2023/03/26 10:48:30;;;;;;;17.02;9.18;;;;;;;8.09;100.00;162681.19;5060017;28;20103;-60
2023/03/26 10:51:06;;;;;;;11.57;8.75;;;;;;;8.04;100.00;162666.34;5058038;28;20044;-59
2023/03/26 10:53:42;;;;;;;15.52;8.68;;;;;;;8.11;100.00;162685.19;5062056;28;20021;-60
2023/03/26 10:56:26;;;;;;;11.57;7.18;;;;;;;8.29;100.00;162732.38;5057545;28;20496;-59
2023/03/26 10:58:54;;;;;;;19.33;10.10;;;;;;;8.27;100.00;162726.97;5059639;28;20091;-60
2023/03/26 11:01:30;;;;;;;23.77;7.65;;;;;;;8.37;100.00;162753.94;5048724;28;20143;-60
2023/03/26 11:04:07;;;;;;;19.77;9.68;;;;;;;8.53;100.00;162795.75;5058565;28;20024;-60
2023/03/26 11:07:20;;;;;;;17.92;7.88;;;;;;;8.56;100.00;162802.53;5067675;28;20048;-59
2023/03/26 11:10:01;;;;;;;11.40;6.55;;;;;;;8.59;100.00;162809.28;5062800;28;20070;-60
2023/03/26 11:12:43;;;;;;;14.90;8.70;;;;;;;8.52;100.00;162791.72;5073165;28;20485;-60
2023/03/26 11:15:28;;;;;;;14.10;8.98;;;;;;;8.45;100.00;162772.81;5072301;28;20041;-60
2023/03/26 11:18:24;;;;;;;15.27;8.15;;;;;;;8.44;100.00;162771.50;5061699;28;20467;-60
2023/03/26 11:21:06;;;;;;;16.35;8.23;;;;;;;8.45;100.00;162774.13;5050874;28;20064;-60
2023/03/26 11:23:51;;;;;;;15.98;9.60;;;;;;;8.61;100.00;162816.00;5061072;28;20025;-60
2023/03/26 11:26:39;;;;;;;25.00;9.85;;;;;;;8.63;100.00;162821.41;5052201;28;20070;-60
2023/03/26 11:29:27;;;;;;;15.40;8.50;;;;;;;8.56;100.00;162802.53;5055872;28;20694;-60
2023/03/26 11:32:15;;;;;;;14.38;9.55;;;;;;;8.43;100.00;162768.78;5071070;28;20090;-60
2023/03/26 11:34:49;;;;;;;17.10;10.65;;;;;;;8.31;100.00;162736.41;5071507;28;20090;-60
2023/03/26 11:37:36;;;;;;;19.17;10.45;;;;;;;8.26;100.00;162724.31;5072677;28;20028;-59
2023/03/26 11:40:10;;;;;;;18.42;11.38;;;;;;;8.14;100.00;162691.94;5071632;28;20044;-59